Tutuzlupinar, Turkey
Current Conditions -  °F | °C
As of 4:20 PM on Tuesday 21 Oct 2014 (Local Time) from LTAP Reporting Station
Few Clouds Few Clouds  
Wind Chill: 63°   Ceiling: Unl
Heat Index: 63°   Visibility: 6mi
Dew Point: 36°   Wind: 0mph
Humidity: 37%   Direction: NA
Pressure: 29.97"   Gusts: NA
Location:  41.98°N, 35.09°E
Report Text: LTAP 211320Z 00000KT 9999 FEW040 17/02 Q1015 NOSIG
Loading
Personal Weather Stations






























Interactive Weather Map
Tropical Storm Tracking
New forecast layout! Learn more

10-Day Weather Forecast

Advertisements
Track Severe Weather on mobile